createdAt,value
2022-08-27T00:02:21.686Z,100310.22
2022-08-27T00:04:52.426Z,100314.31
2022-08-27T00:07:24.724Z,100307.81
2022-08-27T00:09:55.797Z,100310.69
2022-08-27T00:12:26.555Z,100307.81
2022-08-27T00:14:57.798Z,100306.59
2022-08-27T00:17:29.144Z,100313.09
2022-08-27T00:20:01.036Z,100320.41
2022-08-27T00:22:34.381Z,100318.00
2022-08-27T00:25:05.935Z,100323.69
2022-08-27T00:27:37.244Z,100317.16
2022-08-27T00:30:10.736Z,100314.31
2022-08-27T00:32:41.518Z,100311.91
2022-08-27T00:35:15.225Z,100313.94
2022-08-27T00:37:48.874Z,100314.75
2022-08-27T00:40:24.056Z,100310.31
2022-08-27T00:42:56.118Z,100311.09
2022-08-27T00:45:28.117Z,100313.16
2022-08-27T00:48:03.411Z,100305.38
2022-08-27T00:50:41.307Z,100301.75
2022-08-27T00:53:19.619Z,100308.69
2022-08-27T00:55:55.851Z,100297.28
2022-08-27T00:58:33.086Z,100300.56
2022-08-27T01:01:06.292Z,100303.44
2022-08-27T01:03:37.834Z,100304.66
2022-08-27T01:06:16.090Z,100313.22
2022-08-27T01:08:59.643Z,100309.53
2022-08-27T01:11:30.618Z,100307.94
2022-08-27T01:14:01.561Z,100309.53
2022-08-27T01:16:41.244Z,100304.25
2022-08-27T01:19:25.616Z,100309.16
2022-08-27T01:22:22.000Z,100304.72
2022-08-27T01:25:00.204Z,100300.25
2022-08-27T01:27:34.854Z,100307.97
2022-08-27T01:30:07.231Z,100304.78
2022-08-27T01:32:40.120Z,100306.81
2022-08-27T01:35:13.535Z,100308.03
2022-08-27T01:37:47.574Z,100297.09
2022-08-27T01:40:22.387Z,100307.25
2022-08-27T01:42:56.746Z,100304.03
2022-08-27T01:45:31.416Z,100310.16
2022-08-27T01:48:03.345Z,100311.41
2022-08-27T01:50:38.957Z,100326.03
2022-08-27T01:53:18.352Z,100313.81
2022-08-27T01:55:53.389Z,100319.50
2022-08-27T01:58:28.582Z,100324.41
2022-08-27T02:01:05.812Z,100315.88
2022-08-27T02:03:37.855Z,100321.56
2022-08-27T02:06:13.611Z,100326.03
2022-08-27T02:08:45.739Z,100314.25
2022-08-27T02:11:18.203Z,100324.41
2022-08-27T02:13:48.887Z,100318.72
2022-08-27T02:16:19.315Z,100327.28
2022-08-27T02:18:50.172Z,100326.44
2022-08-27T02:21:21.708Z,100323.59
2022-08-27T02:23:52.097Z,100332.16
2022-08-27T02:26:25.429Z,100326.44
2022-08-27T02:28:56.779Z,100329.28
2022-08-27T02:31:28.169Z,100335.81
2022-08-27T02:33:59.425Z,100332.16
2022-08-27T02:36:29.483Z,100325.28
2022-08-27T02:38:59.515Z,100330.97
2022-08-27T02:41:33.063Z,100333.81
2022-08-27T02:44:03.645Z,100333.81
2022-08-27T02:46:57.155Z,100333.81
2022-08-27T02:49:28.335Z,100338.69
2022-08-27T02:51:59.883Z,100347.25
2022-08-27T02:54:31.305Z,100335.84
2022-08-27T02:57:03.836Z,100341.22
2022-08-27T02:59:34.530Z,100335.13
2022-08-27T03:02:05.594Z,100336.34
2022-08-27T03:04:36.592Z,100337.97
2022-08-27T03:07:07.679Z,100342.06
2022-08-27T03:09:49.713Z,100344.91
2022-08-27T03:12:22.897Z,100349.38
2022-08-27T03:14:55.114Z,100350.59
2022-08-27T03:17:42.472Z,100359.16
2022-08-27T03:20:13.767Z,100358.38
2022-08-27T03:22:44.191Z,100364.47
2022-08-27T03:25:15.711Z,100358.78
2022-08-27T03:27:48.617Z,100360.84
2022-08-27T03:30:24.076Z,100366.53
2022-08-27T03:32:56.027Z,100360.84
2022-08-27T03:35:27.069Z,100368.56
2022-08-27T03:37:58.172Z,100361.25
2022-08-27T03:40:29.012Z,100367.38
2022-08-27T03:43:01.586Z,100371.47
2022-08-27T03:45:48.481Z,100375.94
2022-08-27T03:48:23.441Z,100373.09
2022-08-27T03:50:54.957Z,100369.00
2022-08-27T03:53:25.414Z,100371.41
2022-08-27T03:55:56.276Z,100369.78
2022-08-27T03:58:29.200Z,100366.47
2022-08-27T04:01:00.551Z,100367.25
2022-08-27T04:03:31.440Z,100366.84
2022-08-27T04:06:04.552Z,100370.06
2022-08-27T04:08:34.910Z,100369.25
2022-08-27T04:11:10.240Z,100377.38
2022-08-27T04:13:44.435Z,100375.34
2022-08-27T04:16:15.709Z,100367.16
2022-08-27T04:18:46.985Z,100374.47
2022-08-27T04:21:17.855Z,100365.50
2022-08-27T04:23:48.636Z,100363.44
2022-08-27T04:26:19.929Z,100360.16
2022-08-27T04:28:52.954Z,100366.22
2022-08-27T04:31:23.776Z,100360.09
2022-08-27T04:33:55.604Z,100364.13
2022-08-27T04:36:26.508Z,100367.38
2022-08-27T04:38:57.135Z,100364.09
2022-08-27T04:41:29.698Z,100368.13
2022-08-27T04:44:09.799Z,100359.53
2022-08-27T04:46:49.209Z,100359.88
2022-08-27T04:49:19.848Z,100360.69
2022-08-27T04:51:50.450Z,100361.06
2022-08-27T04:54:25.994Z,100348.78
2022-08-27T04:57:04.459Z,100356.91
2022-08-27T04:59:39.407Z,100354.38
2022-08-27T05:02:12.412Z,100353.13
2022-08-27T05:04:44.096Z,100356.78
2022-08-27T05:07:15.578Z,100354.31
2022-08-27T05:09:46.085Z,100357.88
2022-08-27T05:12:17.711Z,100351.22
2022-08-27T05:14:51.282Z,100347.88
2022-08-27T05:17:22.547Z,100353.53
2022-08-27T05:19:53.913Z,100357.13
2022-08-27T05:22:25.353Z,100359.13
2022-08-27T05:24:56.762Z,100353.34
2022-08-27T05:27:27.645Z,100348.38
2022-08-27T05:30:01.036Z,100347.84
2022-08-27T05:32:31.672Z,100346.19
2022-08-27T05:35:02.472Z,100346.91
2022-08-27T05:37:34.802Z,100357.00
2022-08-27T05:40:06.871Z,100352.81
2022-08-27T05:42:37.926Z,100349.91
2022-08-27T05:45:14.791Z,100351.81
2022-08-27T05:47:45.407Z,100355.84
2022-08-27T05:50:18.009Z,100355.41
2022-08-27T05:52:52.080Z,100350.00
2022-08-27T05:55:22.877Z,100347.88
2022-08-27T05:57:54.074Z,100346.53
2022-08-27T06:00:43.805Z,100354.22
2022-08-27T06:03:14.717Z,100352.97
2022-08-27T06:05:45.520Z,100345.16
2022-08-27T06:08:16.820Z,100349.09
2022-08-27T06:10:47.997Z,100361.59
2022-08-27T06:13:19.357Z,100363.13
2022-08-27T06:15:51.495Z,100358.50
2022-08-27T06:18:23.622Z,100353.94
2022-08-27T06:20:54.492Z,100341.63
2022-08-27T06:23:28.133Z,100351.41
2022-08-27T06:25:59.776Z,100351.31
2022-08-27T06:28:32.355Z,100359.00
2022-08-27T06:31:11.238Z,100356.44
2022-08-27T06:33:43.167Z,100355.97
2022-08-27T06:36:17.807Z,100364.47
2022-08-27T06:38:48.978Z,100364.91
2022-08-27T06:41:25.785Z,100365.66
2022-08-27T06:43:58.931Z,100357.75
2022-08-27T06:46:33.255Z,100360.09
2022-08-27T06:49:04.624Z,100368.97
2022-08-27T06:51:39.068Z,100366.00
2022-08-27T06:54:12.627Z,100356.50
2022-08-27T06:56:45.678Z,100358.03
2022-08-27T06:59:21.982Z,100358.00
2022-08-27T07:01:54.292Z,100360.31
2022-08-27T07:04:31.938Z,100354.13
2022-08-27T07:07:04.096Z,100351.28
2022-08-27T07:09:37.112Z,100354.50
2022-08-27T07:12:10.185Z,100354.84
2022-08-27T07:14:41.050Z,100359.22
2022-08-27T07:17:15.861Z,100364.84
2022-08-27T07:19:47.859Z,100365.56
2022-08-27T07:22:18.673Z,100365.00
2022-08-27T07:24:52.185Z,100367.00
2022-08-27T07:27:23.975Z,100369.31
2022-08-27T07:29:54.124Z,100364.38
2022-08-27T07:32:30.645Z,100361.06
2022-08-27T07:35:03.730Z,100356.97
2022-08-27T07:37:35.412Z,100370.38
2022-08-27T07:40:09.036Z,100364.19
2022-08-27T07:42:59.721Z,100362.16
2022-08-27T07:45:30.631Z,100361.25
2022-08-27T07:48:03.508Z,100358.66
2022-08-27T07:50:36.110Z,100357.66
2022-08-27T07:53:08.224Z,100357.56
2022-08-27T07:55:40.731Z,100355.88
2022-08-27T07:58:13.923Z,100359.16
2022-08-27T08:00:48.546Z,100356.66
2022-08-27T08:03:21.419Z,100355.75
2022-08-27T08:05:53.719Z,100347.06
2022-08-27T08:08:25.777Z,100354.31
2022-08-27T08:11:00.897Z,100349.59
2022-08-27T08:13:31.898Z,100345.84
2022-08-27T08:16:02.928Z,100348.59
2022-08-27T08:18:37.163Z,100349.44
2022-08-27T08:21:12.153Z,100355.94
2022-08-27T08:23:43.975Z,100345.75
2022-08-27T08:26:15.176Z,100338.31
2022-08-27T08:28:46.758Z,100338.69
2022-08-27T08:31:17.297Z,100335.47
2022-08-27T08:33:50.837Z,100346.56
2022-08-27T08:36:21.512Z,100335.53
2022-08-27T08:38:51.965Z,100340.00
2022-08-27T08:41:43.062Z,100349.78
2022-08-27T08:44:33.089Z,100335.38
2022-08-27T08:47:13.184Z,100334.47
2022-08-27T08:49:57.792Z,100335.72
2022-08-27T08:52:47.360Z,100332.84
2022-08-27T08:55:39.543Z,100338.13
2022-08-27T08:58:36.470Z,100340.53
2022-08-27T09:01:11.965Z,100344.13
2022-08-27T09:03:50.333Z,100335.75
2022-08-27T09:06:39.996Z,100336.44
2022-08-27T09:09:24.867Z,100329.91
2022-08-27T09:12:05.887Z,100343.88
2022-08-27T09:14:46.460Z,100337.00
2022-08-27T09:17:18.112Z,100337.13
2022-08-27T09:19:52.324Z,100331.84
2022-08-27T09:22:36.829Z,100332.97
2022-08-27T09:25:20.833Z,100335.06
2022-08-27T09:27:55.678Z,100335.84
2022-08-27T09:30:31.903Z,100336.19
2022-08-27T09:33:05.425Z,100332.91
2022-08-27T09:35:45.466Z,100323.00
2022-08-27T09:38:31.582Z,100321.66
2022-08-27T09:41:08.975Z,100325.34
2022-08-27T09:43:44.642Z,100326.59
2022-08-27T09:46:27.079Z,100330.25
2022-08-27T09:48:59.111Z,100322.13
2022-08-27T09:51:32.912Z,100318.47
2022-08-27T09:54:07.690Z,100321.88
2022-08-27T09:56:42.858Z,100314.22
2022-08-27T09:59:25.946Z,100311.00
2022-08-27T10:02:01.700Z,100318.34
2022-08-27T10:04:50.369Z,100301.16
2022-08-27T10:07:36.498Z,100310.19
2022-08-27T10:10:19.877Z,100299.66
2022-08-27T10:12:59.670Z,100305.38
2022-08-27T10:15:43.938Z,100308.69
2022-08-27T10:18:29.025Z,100301.03
2022-08-27T10:21:15.639Z,100300.19
2022-08-27T10:24:00.627Z,100304.78
2022-08-27T10:26:47.838Z,100303.06
2022-08-27T10:29:35.800Z,100311.53
2022-08-27T10:32:26.363Z,100310.28
2022-08-27T10:35:17.494Z,100311.66
2022-08-27T10:38:01.743Z,100319.09
2022-08-27T10:40:39.162Z,100322.75
2022-08-27T10:43:44.987Z,100326.53
2022-08-27T10:46:54.963Z,100325.81
2022-08-27T10:49:37.724Z,100319.28
2022-08-27T10:52:20.568Z,100333.59
2022-08-27T10:55:01.649Z,100318.94
2022-08-27T10:58:00.820Z,100322.22
2022-08-27T11:00:46.205Z,100319.94
2022-08-27T11:03:25.568Z,100321.97
2022-08-27T11:06:13.471Z,100319.94
2022-08-27T11:08:51.286Z,100320.84
2022-08-27T11:14:35.771Z,100313.41
2022-08-27T11:17:18.346Z,100314.09
2022-08-27T11:19:59.575Z,100312.38
2022-08-27T11:22:39.319Z,100311.13
2022-08-27T11:25:29.991Z,100306.31
2022-08-27T11:28:03.581Z,100304.03
2022-08-27T11:30:48.661Z,100300.38
2022-08-27T11:33:30.302Z,100306.53
2022-08-27T11:36:54.432Z,100296.44
2022-08-27T11:39:42.994Z,100297.78
2022-08-27T11:42:26.173Z,100293.91
2022-08-27T11:45:07.524Z,100296.41
2022-08-27T11:47:38.925Z,100292.28
2022-08-27T11:50:23.242Z,100285.31
2022-08-27T11:53:06.893Z,100279.94
2022-08-27T11:55:42.040Z,100282.34
2022-08-27T11:58:27.658Z,100283.59
2022-08-27T12:01:04.297Z,100284.38
2022-08-27T12:03:37.714Z,100281.53
2022-08-27T12:06:30.249Z,100284.06
2022-08-27T12:09:18.749Z,100290.31
2022-08-27T12:12:04.643Z,100292.94
2022-08-27T12:14:48.186Z,100289.28
2022-08-27T12:17:38.601Z,100280.69
2022-08-27T12:20:25.381Z,100283.09
2022-08-27T12:23:45.409Z,100280.69
2022-08-27T12:26:34.150Z,100272.91
2022-08-27T12:29:30.547Z,100278.97
2022-08-27T12:32:17.938Z,100284.25
2022-08-27T12:35:01.328Z,100286.78
2022-08-27T12:37:38.290Z,100287.22
2022-08-27T12:40:22.953Z,100285.59
2022-08-27T12:43:08.722Z,100286.94
2022-08-27T12:45:50.174Z,100288.63
2022-08-27T12:48:27.036Z,100288.28
2022-08-27T12:51:03.634Z,100285.88
2022-08-27T12:53:48.946Z,100280.25
2022-08-27T12:56:54.746Z,100278.41
2022-08-27T13:00:05.035Z,100287.19
2022-08-27T13:03:00.552Z,100279.50
2022-08-27T13:05:41.993Z,100282.00
2022-08-27T13:08:24.954Z,100288.97
2022-08-27T13:10:55.971Z,100281.31
2022-08-27T13:13:29.276Z,100286.66
2022-08-27T13:16:06.992Z,100277.38
2022-08-27T13:18:41.054Z,100273.72
2022-08-27T13:21:22.873Z,100281.06
2022-08-27T13:23:59.936Z,100276.91
2022-08-27T13:26:38.021Z,100283.91
2022-08-27T13:29:13.674Z,100280.69
2022-08-27T13:31:45.433Z,100273.00
2022-08-27T13:34:23.030Z,100276.31
2022-08-27T13:37:05.248Z,100274.25
2022-08-27T13:39:38.441Z,100274.25
2022-08-27T13:42:11.939Z,100270.13
2022-08-27T13:44:48.355Z,100258.69
2022-08-27T13:47:24.947Z,100258.34
2022-08-27T13:50:04.952Z,100262.53
2022-08-27T13:52:59.466Z,100270.31
2022-08-27T13:55:31.461Z,100265.94
2022-08-27T13:58:15.973Z,100257.78
2022-08-27T14:00:50.265Z,100261.09
2022-08-27T14:03:33.617Z,100261.09
2022-08-27T14:06:05.526Z,100255.13
2022-08-27T14:08:38.764Z,100256.00
2022-08-27T14:11:13.302Z,100262.19
2022-08-27T14:13:49.690Z,100257.72
2022-08-27T14:16:30.895Z,100265.13
2022-08-27T14:19:11.833Z,100261.47
2022-08-27T14:21:46.585Z,100251.75
2022-08-27T14:24:17.274Z,100259.25
2022-08-27T14:26:51.821Z,100258.53
2022-08-27T14:29:22.902Z,100254.97
2022-08-27T14:31:55.991Z,100255.41
2022-08-27T14:34:27.649Z,100251.38
2022-08-27T14:36:58.618Z,100243.59
2022-08-27T14:39:28.980Z,100253.78
2022-08-27T14:41:59.450Z,100247.66
2022-08-27T14:44:31.271Z,100259.09
2022-08-27T14:47:04.302Z,100244.34
2022-08-27T14:49:52.353Z,100236.59
2022-08-27T14:52:23.411Z,100245.16
2022-08-27T14:54:55.079Z,100239.44
2022-08-27T14:57:26.143Z,100252.53
2022-08-27T14:59:57.210Z,100237.91
2022-08-27T15:02:30.141Z,100249.31
2022-08-27T15:05:01.460Z,100248.97
2022-08-27T15:07:45.638Z,100246.19
2022-08-27T15:10:18.282Z,100251.19
2022-08-27T15:12:49.342Z,100239.38
2022-08-27T15:15:20.930Z,100247.97
2022-08-27T15:17:54.237Z,100251.63
2022-08-27T15:20:25.737Z,100256.53
2022-08-27T15:22:56.831Z,100258.59
2022-08-27T15:25:29.686Z,100260.63
2022-08-27T15:28:00.755Z,100263.50
2022-08-27T15:30:33.558Z,100261.53
2022-08-27T15:33:09.203Z,100258.31
2022-08-27T15:35:39.959Z,100263.69
2022-08-27T15:38:11.405Z,100255.56
2022-08-27T15:40:42.441Z,100259.28
2022-08-27T15:43:15.977Z,100261.00
2022-08-27T15:45:46.492Z,100261.09
2022-08-27T15:48:19.509Z,100265.59
2022-08-27T15:50:50.412Z,100271.78
2022-08-27T15:53:26.232Z,100265.69
2022-08-27T15:55:56.962Z,100266.16
2022-08-27T15:58:29.169Z,100270.25
2022-08-27T16:01:11.333Z,100275.59
2022-08-27T16:03:46.905Z,100270.72
2022-08-27T16:06:19.453Z,100263.38
2022-08-27T16:08:50.338Z,100276.84
2022-08-27T16:11:23.385Z,100274.00
2022-08-27T16:13:55.004Z,100273.19
2022-08-27T16:16:30.897Z,100269.97
2022-08-27T16:19:07.017Z,100279.00
2022-08-27T16:21:38.884Z,100275.31
2022-08-27T16:24:11.552Z,100280.59
2022-08-27T16:26:42.677Z,100278.53
2022-08-27T16:29:12.619Z,100288.34
2022-08-27T16:31:43.510Z,100280.66
2022-08-27T16:34:22.566Z,100284.38
2022-08-27T16:36:53.150Z,100292.13
2022-08-27T16:39:23.709Z,100295.00
2022-08-27T16:41:54.570Z,100296.69
2022-08-27T16:44:28.070Z,100297.94
2022-08-27T16:46:58.789Z,100302.03
2022-08-27T16:49:47.795Z,100304.09
2022-08-27T16:52:18.850Z,100300.50
2022-08-27T16:54:49.644Z,100302.09
2022-08-27T16:57:20.460Z,100303.72
2022-08-27T16:59:52.311Z,100303.28
2022-08-27T17:02:31.088Z,100304.88
2022-08-27T17:05:30.584Z,100310.22
2022-08-27T17:07:55.747Z,100314.84
2022-08-27T17:10:27.023Z,100313.69
2022-08-27T17:12:58.083Z,100312.06
2022-08-27T17:15:29.137Z,100312.06
2022-08-27T17:17:59.140Z,100313.31
2022-08-27T17:20:33.189Z,100309.66
2022-08-27T17:23:09.053Z,100313.78
2022-08-27T17:25:40.993Z,100319.47
2022-08-27T17:28:12.399Z,100321.50
2022-08-27T17:30:43.366Z,100321.50
2022-08-27T17:33:22.388Z,100315.38
2022-08-27T17:35:58.258Z,100322.34
2022-08-27T17:38:29.223Z,100324.81
2022-08-27T17:41:00.603Z,100321.13
2022-08-27T17:43:31.940Z,100326.44
2022-08-27T17:46:03.266Z,100331.69
2022-08-27T17:48:33.945Z,100336.94
2022-08-27T17:51:07.299Z,100332.06
2022-08-27T17:53:37.755Z,100343.47
2022-08-27T17:56:09.462Z,100337.75
2022-08-27T17:58:41.847Z,100334.91
2022-08-27T18:01:13.251Z,100340.63
2022-08-27T18:03:47.906Z,100342.22
2022-08-27T18:06:20.817Z,100340.63
2022-08-27T18:08:52.714Z,100336.16
2022-08-27T18:11:23.326Z,100340.63
2022-08-27T18:14:04.090Z,100347.94
2022-08-27T18:16:36.459Z,100339.78
2022-08-27T18:19:07.984Z,100341.88
2022-08-27T18:21:46.542Z,100347.13
2022-08-27T18:24:27.470Z,100345.50
2022-08-27T18:26:57.531Z,100344.72
2022-08-27T18:29:30.501Z,100349.19
2022-08-27T18:32:01.211Z,100352.50
2022-08-27T18:34:33.102Z,100347.19
2022-08-27T18:37:06.042Z,100354.53
2022-08-27T18:39:39.655Z,100343.56
2022-08-27T18:42:12.663Z,100339.50
2022-08-27T18:44:46.878Z,100345.22
2022-08-27T18:47:17.722Z,100350.13
2022-08-27T18:49:48.278Z,100352.97
2022-08-27T18:52:24.737Z,100345.22
2022-08-27T18:54:55.337Z,100350.91
2022-08-27T18:57:27.631Z,100351.75
2022-08-27T18:59:58.333Z,100351.75
2022-08-27T19:02:29.040Z,100348.53
2022-08-27T19:04:59.766Z,100354.69
2022-08-27T19:07:33.239Z,100353.06
2022-08-27T19:10:04.058Z,100352.25
2022-08-27T19:12:36.894Z,100351.00
2022-08-27T19:15:11.952Z,100356.72
2022-08-27T19:17:47.191Z,100355.91
2022-08-27T19:20:19.719Z,100362.88
2022-08-27T19:22:52.578Z,100359.63
2022-08-27T19:25:24.176Z,100362.13
2022-08-27T19:27:56.029Z,100360.50
2022-08-27T19:30:26.962Z,100359.72
2022-08-27T19:32:57.749Z,100359.72
2022-08-27T19:35:30.446Z,100369.06
2022-08-27T19:38:03.364Z,100363.72
2022-08-27T19:40:34.649Z,100361.31
2022-08-27T19:43:05.818Z,100373.59
2022-08-27T19:45:39.812Z,100372.81
2022-08-27T19:48:13.046Z,100376.47
2022-08-27T19:50:43.934Z,100369.97
2022-08-27T19:53:17.878Z,100365.88
2022-08-27T19:55:48.683Z,100367.47
2022-08-27T19:58:21.333Z,100365.03
2022-08-27T20:00:52.763Z,100365.50
2022-08-27T20:03:23.866Z,100371.19
2022-08-27T20:05:57.479Z,100375.66
2022-08-27T20:08:30.469Z,100377.69
2022-08-27T20:11:02.334Z,100385.03
2022-08-27T20:13:34.626Z,100375.28
2022-08-27T20:16:06.919Z,100384.31
2022-08-27T20:18:44.323Z,100381.44
2022-08-27T20:21:15.294Z,100372.88
2022-08-27T20:23:48.630Z,100377.78
2022-08-27T20:26:20.355Z,100383.94
2022-08-27T20:28:51.213Z,100384.72
2022-08-27T20:31:22.174Z,100386.78
2022-08-27T20:33:53.515Z,100375.38
2022-08-27T20:36:28.097Z,100383.09
2022-08-27T20:39:01.937Z,100383.09
2022-08-27T20:41:32.527Z,100382.31
2022-08-27T20:44:03.565Z,100385.97
2022-08-27T20:46:38.872Z,100381.94
2022-08-27T20:49:10.518Z,100378.72
2022-08-27T20:52:02.265Z,100379.53
2022-08-27T20:54:34.317Z,100383.19
2022-08-27T20:57:06.497Z,100372.59
2022-08-27T20:59:53.878Z,100381.94
2022-08-27T21:02:27.896Z,100379.91
2022-08-27T21:04:59.687Z,100386.41
2022-08-27T21:07:31.427Z,100373.81
2022-08-27T21:10:05.247Z,100368.91
2022-08-27T21:12:36.283Z,100381.94
2022-08-27T21:15:10.511Z,100373.81
2022-08-27T21:17:41.674Z,100372.22
2022-08-27T21:20:14.441Z,100381.97
2022-08-27T21:22:46.899Z,100384.41
2022-08-27T21:25:20.806Z,100382.81
2022-08-27T21:27:51.662Z,100377.13
2022-08-27T21:30:25.513Z,100374.72
2022-08-27T21:32:57.140Z,100383.75
2022-08-27T21:35:29.930Z,100378.81
2022-08-27T21:38:03.472Z,100377.22
2022-08-27T21:40:35.465Z,100378.06
2022-08-27T21:43:05.701Z,100371.19
2022-08-27T21:45:36.131Z,100369.97
2022-08-27T21:48:07.249Z,100363.88
2022-08-27T21:50:38.395Z,100361.91
2022-08-27T21:53:08.999Z,100364.41
2022-08-27T21:55:44.725Z,100365.19
2022-08-27T21:58:16.952Z,100361.53
2022-08-27T22:00:51.358Z,100351.75
2022-08-27T22:03:25.071Z,100350.13
2022-08-27T22:05:56.586Z,100342.44
2022-08-27T22:08:28.042Z,100337.19
2022-08-27T22:11:01.986Z,100326.63
2022-08-27T22:13:32.976Z,100320.56
2022-08-27T22:16:03.656Z,100325.09
2022-08-27T22:18:34.694Z,100318.59
2022-08-27T22:21:06.906Z,100321.44
2022-08-27T22:23:37.123Z,100322.69
2022-08-27T22:26:10.643Z,100331.59
2022-08-27T22:28:41.639Z,100333.66
2022-08-27T22:31:12.421Z,100336.06
2022-08-27T22:33:43.168Z,100330.81
2022-08-27T22:36:14.536Z,100332.41
2022-08-27T22:38:44.957Z,100338.91
2022-08-27T22:41:19.347Z,100343.75
2022-08-27T22:43:56.697Z,100344.13
2022-08-27T22:46:28.454Z,100351.44
2022-08-27T22:48:59.265Z,100344.84
2022-08-27T22:51:30.542Z,100340.41
2022-08-27T22:54:01.215Z,100331.47
2022-08-27T22:56:33.356Z,100331.84
2022-08-27T22:59:04.078Z,100336.75
2022-08-27T23:01:39.405Z,100337.56
2022-08-27T23:04:10.285Z,100331.41
2022-08-27T23:06:41.261Z,100328.56
2022-08-27T23:09:11.822Z,100337.13
2022-08-27T23:11:44.722Z,100336.28
2022-08-27T23:14:15.907Z,100339.16
2022-08-27T23:16:47.090Z,100338.34
2022-08-27T23:19:17.147Z,100331.03
2022-08-27T23:21:50.945Z,100330.66
2022-08-27T23:24:21.884Z,100338.78
2022-08-27T23:27:11.913Z,100332.28
2022-08-27T23:29:43.502Z,100329.50
2022-08-27T23:32:13.651Z,100326.63
2022-08-27T23:34:44.891Z,100320.16
2022-08-27T23:37:16.021Z,100335.56
2022-08-27T23:39:46.749Z,100326.19
2022-08-27T23:42:20.207Z,100330.31
2022-08-27T23:44:51.680Z,100334.41
2022-08-27T23:47:22.527Z,100328.31
2022-08-27T23:49:52.853Z,100330.72
2022-08-27T23:52:23.523Z,100324.25
2022-08-27T23:54:53.732Z,100325.47
2022-08-27T23:57:26.401Z,100327.09
2022-08-27T23:59:56.685Z,100334.81
